sensor_id;sensor_type;location;lat;lon;timestamp;P1;durP1;ratioP1;P2;durP2;ratioP2
8450;SDS011;4262;50.980;13.892;2023-03-23T04:30:23;8.83;;;3.50;;
8450;SDS011;4262;50.980;13.892;2023-03-23T04:33:08;12.10;;;2.90;;
8450;SDS011;4262;50.980;13.892;2023-03-23T04:35:42;7.53;;;2.87;;
8450;SDS011;4262;50.980;13.892;2023-03-23T04:38:29;11.30;;;3.60;;
8450;SDS011;4262;50.980;13.892;2023-03-23T04:41:04;8.87;;;2.77;;
8450;SDS011;4262;50.980;13.892;2023-03-23T04:43:41;8.70;;;2.90;;
8450;SDS011;4262;50.980;13.892;2023-03-23T04:46:20;9.90;;;2.77;;
8450;SDS011;4262;50.980;13.892;2023-03-23T04:48:49;12.47;;;3.60;;
8450;SDS011;4262;50.980;13.892;2023-03-23T04:51:22;7.57;;;2.33;;
8450;SDS011;4262;50.980;13.892;2023-03-23T04:53:51;8.50;;;3.57;;
8450;SDS011;4262;50.980;13.892;2023-03-23T04:56:19;8.93;;;3.67;;
8450;SDS011;4262;50.980;13.892;2023-03-23T04:58:46;7.10;;;2.70;;
8450;SDS011;4262;50.980;13.892;2023-03-23T05:01:35;11.27;;;2.77;;
8450;SDS011;4262;50.980;13.892;2023-03-23T05:04:12;9.93;;;3.77;;
8450;SDS011;4262;50.980;13.892;2023-03-23T05:06:50;9.43;;;2.87;;
8450;SDS011;4262;50.980;13.892;2023-03-23T05:09:22;10.97;;;2.93;;
8450;SDS011;4262;50.980;13.892;2023-03-23T05:11:50;10.40;;;2.80;;
8450;SDS011;4262;50.980;13.892;2023-03-23T05:14:17;7.37;;;2.80;;
8450;SDS011;4262;50.980;13.892;2023-03-23T05:16:53;7.00;;;2.30;;
8450;SDS011;4262;50.980;13.892;2023-03-23T05:19:22;9.30;;;2.50;;
8450;SDS011;4262;50.980;13.892;2023-03-23T05:21:50;8.43;;;3.20;;
8450;SDS011;4262;50.980;13.892;2023-03-23T05:24:19;12.10;;;3.00;;
8450;SDS011;4262;50.980;13.892;2023-03-23T05:26:46;8.27;;;2.87;;
8450;SDS011;4262;50.980;13.892;2023-03-23T05:29:24;8.30;;;2.97;;
8450;SDS011;4262;50.980;13.892;2023-03-23T05:31:58;13.03;;;2.97;;
8450;SDS011;4262;50.980;13.892;2023-03-23T05:34:27;11.80;;;3.17;;
8450;SDS011;4262;50.980;13.892;2023-03-23T05:37:00;12.80;;;2.80;;
8450;SDS011;4262;50.980;13.892;2023-03-23T05:39:34;7.47;;;2.67;;
8450;SDS011;4262;50.980;13.892;2023-03-23T05:42:21;10.87;;;3.60;;
8450;SDS011;4262;50.980;13.892;2023-03-23T05:44:55;9.47;;;2.50;;
8450;SDS011;4262;50.980;13.892;2023-03-23T05:47:26;8.40;;;2.90;;
8450;SDS011;4262;50.980;13.892;2023-03-23T05:49:58;7.70;;;2.90;;
8450;SDS011;4262;50.980;13.892;2023-03-23T05:52:28;9.60;;;2.90;;
8450;SDS011;4262;50.980;13.892;2023-03-23T05:54:59;7.10;;;2.60;;
8450;SDS011;4262;50.980;13.892;2023-03-23T05:57:27;8.60;;;3.00;;
8450;SDS011;4262;50.980;13.892;2023-03-23T06:00:01;8.10;;;2.93;;
8450;SDS011;4262;50.980;13.892;2023-03-23T06:02:39;7.90;;;2.40;;
8450;SDS011;4262;50.980;13.892;2023-03-23T06:05:14;6.60;;;2.40;;
8450;SDS011;4262;50.980;13.892;2023-03-23T06:07:45;11.03;;;3.40;;
8450;SDS011;4262;50.980;13.892;2023-03-23T06:10:13;7.00;;;2.90;;
8450;SDS011;4262;50.980;13.892;2023-03-23T06:12:44;10.17;;;2.73;;
8450;SDS011;4262;50.980;13.892;2023-03-23T06:15:33;11.10;;;2.80;;
8450;SDS011;4262;50.980;13.892;2023-03-23T06:18:20;12.80;;;2.90;;
8450;SDS011;4262;50.980;13.892;2023-03-23T06:21:02;8.43;;;2.60;;
8450;SDS011;4262;50.980;13.892;2023-03-23T06:23:46;7.50;;;2.80;;
8450;SDS011;4262;50.980;13.892;2023-03-23T06:26:14;11.20;;;3.47;;
8450;SDS011;4262;50.980;13.892;2023-03-23T06:28:50;8.17;;;3.20;;
8450;SDS011;4262;50.980;13.892;2023-03-23T06:31:17;8.23;;;3.30;;
8450;SDS011;4262;50.980;13.892;2023-03-23T06:33:49;8.63;;;3.27;;
8450;SDS011;4262;50.980;13.892;2023-03-23T06:36:39;8.50;;;2.93;;
8450;SDS011;4262;50.980;13.892;2023-03-23T06:39:16;7.83;;;2.60;;
8450;SDS011;4262;50.980;13.892;2023-03-23T06:41:52;9.20;;;3.20;;
8450;SDS011;4262;50.980;13.892;2023-03-23T06:44:20;8.27;;;2.47;;
8450;SDS011;4262;50.980;13.892;2023-03-23T06:46:47;10.07;;;2.77;;
8450;SDS011;4262;50.980;13.892;2023-03-23T06:49:36;6.10;;;1.93;;
8450;SDS011;4262;50.980;13.892;2023-03-23T06:52:14;8.33;;;2.00;;
8450;SDS011;4262;50.980;13.892;2023-03-23T06:54:41;7.03;;;2.30;;
8450;SDS011;4262;50.980;13.892;2023-03-23T06:57:10;10.80;;;2.00;;
8450;SDS011;4262;50.980;13.892;2023-03-23T06:59:38;7.47;;;2.20;;
8450;SDS011;4262;50.980;13.892;2023-03-23T07:02:05;6.90;;;2.00;;
8450;SDS011;4262;50.980;13.892;2023-03-23T07:04:32;9.10;;;2.00;;
8450;SDS011;4262;50.980;13.892;2023-03-23T07:07:09;7.30;;;2.07;;
8450;SDS011;4262;50.980;13.892;2023-03-23T07:09:47;9.07;;;2.53;;
8450;SDS011;4262;50.980;13.892;2023-03-23T07:12:17;6.40;;;1.70;;
8450;SDS011;4262;50.980;13.892;2023-03-23T07:14:46;7.93;;;2.20;;
8450;SDS011;4262;50.980;13.892;2023-03-23T07:17:13;6.40;;;1.80;;
8450;SDS011;4262;50.980;13.892;2023-03-23T07:19:54;6.60;;;1.87;;
8450;SDS011;4262;50.980;13.892;2023-03-23T07:22:23;7.00;;;1.60;;
8450;SDS011;4262;50.980;13.892;2023-03-23T07:24:58;6.40;;;1.77;;
8450;SDS011;4262;50.980;13.892;2023-03-23T07:27:30;6.60;;;1.80;;
8450;SDS011;4262;50.980;13.892;2023-03-23T07:30:00;9.63;;;2.00;;
8450;SDS011;4262;50.980;13.892;2023-03-23T07:32:27;6.80;;;2.20;;
8450;SDS011;4262;50.980;13.892;2023-03-23T07:34:54;6.27;;;1.60;;
8450;SDS011;4262;50.980;13.892;2023-03-23T07:37:36;7.83;;;2.30;;
8450;SDS011;4262;50.980;13.892;2023-03-23T07:40:03;7.40;;;1.63;;
8450;SDS011;4262;50.980;13.892;2023-03-23T07:42:41;6.50;;;1.60;;
8450;SDS011;4262;50.980;13.892;2023-03-23T07:45:09;5.70;;;1.40;;
8450;SDS011;4262;50.980;13.892;2023-03-23T07:47:37;7.20;;;1.60;;
8450;SDS011;4262;50.980;13.892;2023-03-23T07:50:05;6.43;;;1.73;;
8450;SDS011;4262;50.980;13.892;2023-03-23T07:52:38;6.87;;;2.03;;
8450;SDS011;4262;50.980;13.892;2023-03-23T07:55:07;5.70;;;1.53;;
8450;SDS011;4262;50.980;13.892;2023-03-23T07:57:50;6.60;;;1.77;;
8450;SDS011;4262;50.980;13.892;2023-03-23T08:00:19;7.07;;;2.30;;
8450;SDS011;4262;50.980;13.892;2023-03-23T08:02:52;7.30;;;2.27;;
8450;SDS011;4262;50.980;13.892;2023-03-23T08:05:53;8.13;;;1.97;;
8450;SDS011;4262;50.980;13.892;2023-03-23T08:08:45;7.50;;;1.80;;
8450;SDS011;4262;50.980;13.892;2023-03-23T08:11:31;6.20;;;1.97;;
8450;SDS011;4262;50.980;13.892;2023-03-23T08:14:07;11.00;;;2.03;;
8450;SDS011;4262;50.980;13.892;2023-03-23T08:16:43;11.60;;;2.10;;
8450;SDS011;4262;50.980;13.892;2023-03-23T08:19:29;6.90;;;1.77;;
8450;SDS011;4262;50.980;13.892;2023-03-23T08:22:27;7.53;;;1.93;;
8450;SDS011;4262;50.980;13.892;2023-03-23T08:25:18;7.20;;;2.20;;
8450;SDS011;4262;50.980;13.892;2023-03-23T08:28:06;5.80;;;1.70;;
8450;SDS011;4262;50.980;13.892;2023-03-23T08:30:53;7.87;;;2.80;;
8450;SDS011;4262;50.980;13.892;2023-03-23T08:33:28;7.10;;;1.80;;
8450;SDS011;4262;50.980;13.892;2023-03-23T08:36:15;6.60;;;2.00;;
8450;SDS011;4262;50.980;13.892;2023-03-23T08:38:52;7.43;;;2.10;;
8450;SDS011;4262;50.980;13.892;2023-03-23T08:41:50;6.20;;;1.87;;
8450;SDS011;4262;50.980;13.892;2023-03-23T08:44:29;6.80;;;2.13;;
8450;SDS011;4262;50.980;13.892;2023-03-23T08:47:15;6.93;;;1.70;;
8450;SDS011;4262;50.980;13.892;2023-03-23T08:50:15;7.30;;;1.80;;
8450;SDS011;4262;50.980;13.892;2023-03-23T08:52:59;6.00;;;1.60;;
8450;SDS011;4262;50.980;13.892;2023-03-23T08:55:41;6.90;;;2.00;;
8450;SDS011;4262;50.980;13.892;2023-03-23T08:58:22;6.33;;;2.00;;
8450;SDS011;4262;50.980;13.892;2023-03-23T09:01:08;5.70;;;1.40;;
8450;SDS011;4262;50.980;13.892;2023-03-23T09:03:59;6.40;;;1.93;;
8450;SDS011;4262;50.980;13.892;2023-03-23T09:06:47;8.83;;;2.03;;
8450;SDS011;4262;50.980;13.892;2023-03-23T09:09:14;6.03;;;1.97;;
8450;SDS011;4262;50.980;13.892;2023-03-23T09:11:41;8.00;;;2.17;;
8450;SDS011;4262;50.980;13.892;2023-03-23T09:14:10;9.20;;;3.20;;
8450;SDS011;4262;50.980;13.892;2023-03-23T09:16:37;6.60;;;1.90;;
8450;SDS011;4262;50.980;13.892;2023-03-23T09:19:06;14.93;;;2.30;;
8450;SDS011;4262;50.980;13.892;2023-03-23T09:21:34;9.30;;;2.33;;
8450;SDS011;4262;50.980;13.892;2023-03-23T09:24:01;8.20;;;2.13;;
8450;SDS011;4262;50.980;13.892;2023-03-23T09:26:29;7.53;;;2.60;;
8450;SDS011;4262;50.980;13.892;2023-03-23T09:28:58;9.20;;;2.43;;
8450;SDS011;4262;50.980;13.892;2023-03-23T09:31:26;7.60;;;2.00;;
8450;SDS011;4262;50.980;13.892;2023-03-23T09:33:53;7.83;;;2.40;;
8450;SDS011;4262;50.980;13.892;2023-03-23T09:36:22;8.03;;;2.23;;
8450;SDS011;4262;50.980;13.892;2023-03-23T09:38:50;7.40;;;2.07;;
8450;SDS011;4262;50.980;13.892;2023-03-23T09:41:33;7.40;;;2.17;;
8450;SDS011;4262;50.980;13.892;2023-03-23T09:44:13;9.17;;;2.37;;
8450;SDS011;4262;50.980;13.892;2023-03-23T09:46:54;8.43;;;2.37;;
8450;SDS011;4262;50.980;13.892;2023-03-23T09:49:30;8.43;;;2.00;;
8450;SDS011;4262;50.980;13.892;2023-03-23T09:52:02;7.80;;;2.60;;
8450;SDS011;4262;50.980;13.892;2023-03-23T09:54:33;7.10;;;2.10;;
8450;SDS011;4262;50.980;13.892;2023-03-23T09:57:03;7.97;;;2.30;;
8450;SDS011;4262;50.980;13.892;2023-03-23T09:59:33;6.97;;;2.10;;
8450;SDS011;4262;50.980;13.892;2023-03-23T10:02:10;7.30;;;2.30;;
8450;SDS011;4262;50.980;13.892;2023-03-23T10:04:41;8.20;;;2.43;;
8450;SDS011;4262;50.980;13.892;2023-03-23T10:07:14;6.80;;;2.10;;
8450;SDS011;4262;50.980;13.892;2023-03-23T10:09:44;8.07;;;2.83;;
8450;SDS011;4262;50.980;13.892;2023-03-23T10:12:17;7.27;;;2.33;;
8450;SDS011;4262;50.980;13.892;2023-03-23T10:15:10;6.63;;;2.07;;
8450;SDS011;4262;50.980;13.892;2023-03-23T10:17:45;7.60;;;2.13;;
8450;SDS011;4262;50.980;13.892;2023-03-23T10:20:21;6.27;;;1.80;;
8450;SDS011;4262;50.980;13.892;2023-03-23T10:22:58;7.03;;;2.10;;
8450;SDS011;4262;50.980;13.892;2023-03-23T10:25:34;8.03;;;2.30;;
8450;SDS011;4262;50.980;13.892;2023-03-23T10:28:05;6.57;;;2.07;;
8450;SDS011;4262;50.980;13.892;2023-03-23T10:30:36;6.50;;;2.10;;
8450;SDS011;4262;50.980;13.892;2023-03-23T10:33:10;6.83;;;1.80;;
8450;SDS011;4262;50.980;13.892;2023-03-23T10:35:43;6.27;;;1.93;;
8450;SDS011;4262;50.980;13.892;2023-03-23T10:38:16;9.67;;;2.13;;
8450;SDS011;4262;50.980;13.892;2023-03-23T10:40:48;6.47;;;1.60;;
8450;SDS011;4262;50.980;13.892;2023-03-23T10:43:17;6.10;;;1.97;;
8450;SDS011;4262;50.980;13.892;2023-03-23T10:45:44;6.30;;;1.80;;
8450;SDS011;4262;50.980;13.892;2023-03-23T10:48:21;6.67;;;1.70;;
8450;SDS011;4262;50.980;13.892;2023-03-23T10:50:52;6.80;;;1.73;;
8450;SDS011;4262;50.980;13.892;2023-03-23T10:53:23;6.83;;;2.07;;
8450;SDS011;4262;50.980;13.892;2023-03-23T10:55:55;5.93;;;1.77;;
8450;SDS011;4262;50.980;13.892;2023-03-23T10:58:24;6.10;;;1.60;;
8450;SDS011;4262;50.980;13.892;2023-03-23T11:00:56;6.77;;;1.70;;
8450;SDS011;4262;50.980;13.892;2023-03-23T11:03:27;7.43;;;2.17;;
8450;SDS011;4262;50.980;13.892;2023-03-23T11:06:02;7.80;;;1.60;;
8450;SDS011;4262;50.980;13.892;2023-03-23T11:08:35;6.30;;;2.00;;
8450;SDS011;4262;50.980;13.892;2023-03-23T11:11:08;6.20;;;1.63;;
8450;SDS011;4262;50.980;13.892;2023-03-23T11:13:39;6.93;;;2.03;;
8450;SDS011;4262;50.980;13.892;2023-03-23T11:16:08;7.10;;;1.90;;
8450;SDS011;4262;50.980;13.892;2023-03-23T11:18:38;6.77;;;1.77;;
8450;SDS011;4262;50.980;13.892;2023-03-23T11:21:08;8.27;;;1.83;;
8450;SDS011;4262;50.980;13.892;2023-03-23T11:23:40;7.67;;;1.60;;
8450;SDS011;4262;50.980;13.892;2023-03-23T11:26:10;6.60;;;2.00;;
8450;SDS011;4262;50.980;13.892;2023-03-23T11:28:43;5.70;;;1.80;;
8450;SDS011;4262;50.980;13.892;2023-03-23T11:31:12;7.00;;;1.97;;
8450;SDS011;4262;50.980;13.892;2023-03-23T11:33:46;6.40;;;1.70;;
8450;SDS011;4262;50.980;13.892;2023-03-23T11:36:17;8.43;;;2.40;;
8450;SDS011;4262;50.980;13.892;2023-03-23T11:38:44;7.23;;;2.07;;
8450;SDS011;4262;50.980;13.892;2023-03-23T11:41:12;7.10;;;1.70;;
8450;SDS011;4262;50.980;13.892;2023-03-23T11:43:44;7.50;;;1.87;;
8450;SDS011;4262;50.980;13.892;2023-03-23T11:46:15;5.77;;;1.60;;
8450;SDS011;4262;50.980;13.892;2023-03-23T11:48:52;6.73;;;1.87;;
8450;SDS011;4262;50.980;13.892;2023-03-23T11:51:24;5.70;;;1.60;;
8450;SDS011;4262;50.980;13.892;2023-03-23T11:53:57;7.50;;;1.90;;
8450;SDS011;4262;50.980;13.892;2023-03-23T11:56:29;7.63;;;1.63;;
8450;SDS011;4262;50.980;13.892;2023-03-23T11:59:01;6.10;;;1.70;;
8450;SDS011;4262;50.980;13.892;2023-03-23T12:01:39;6.73;;;1.83;;
8450;SDS011;4262;50.980;13.892;2023-03-23T12:04:19;6.00;;;1.70;;
8450;SDS011;4262;50.980;13.892;2023-03-23T12:07:03;8.87;;;1.50;;
8450;SDS011;4262;50.980;13.892;2023-03-23T12:09:43;5.93;;;1.43;;
8450;SDS011;4262;50.980;13.892;2023-03-23T12:12:19;5.50;;;1.40;;
8450;SDS011;4262;50.980;13.892;2023-03-23T12:14:56;7.13;;;1.57;;
8450;SDS011;4262;50.980;13.892;2023-03-23T12:17:33;6.00;;;1.60;;
8450;SDS011;4262;50.980;13.892;2023-03-23T12:20:15;6.17;;;1.60;;
8450;SDS011;4262;50.980;13.892;2023-03-23T12:22:54;7.43;;;1.60;;
8450;SDS011;4262;50.980;13.892;2023-03-23T12:25:39;5.80;;;1.90;;
8450;SDS011;4262;50.980;13.892;2023-03-23T12:28:21;7.00;;;1.70;;
8450;SDS011;4262;50.980;13.892;2023-03-23T12:30:56;6.30;;;1.70;;
8450;SDS011;4262;50.980;13.892;2023-03-23T12:33:33;6.07;;;1.73;;
8450;SDS011;4262;50.980;13.892;2023-03-23T12:36:14;7.53;;;1.40;;
8450;SDS011;4262;50.980;13.892;2023-03-23T12:38:54;6.30;;;1.70;;
8450;SDS011;4262;50.980;13.892;2023-03-23T12:41:34;7.43;;;1.60;;
8450;SDS011;4262;50.980;13.892;2023-03-23T12:44:09;7.40;;;1.40;;
8450;SDS011;4262;50.980;13.892;2023-03-23T12:46:43;7.20;;;1.60;;
8450;SDS011;4262;50.980;13.892;2023-03-23T12:49:20;5.40;;;1.30;;
8450;SDS011;4262;50.980;13.892;2023-03-23T12:51:56;6.37;;;1.70;;
8450;SDS011;4262;50.980;13.892;2023-03-23T12:54:28;6.00;;;1.80;;
8450;SDS011;4262;50.980;13.892;2023-03-23T12:56:59;6.67;;;1.70;;
8450;SDS011;4262;50.980;13.892;2023-03-23T12:59:38;5.87;;;1.50;;
8450;SDS011;4262;50.980;13.892;2023-03-23T13:02:12;6.20;;;1.60;;
8450;SDS011;4262;50.980;13.892;2023-03-23T13:04:44;6.27;;;1.43;;
8450;SDS011;4262;50.980;13.892;2023-03-23T13:07:16;6.70;;;2.10;;
8450;SDS011;4262;50.980;13.892;2023-03-23T13:09:50;8.10;;;2.20;;
8450;SDS011;4262;50.980;13.892;2023-03-23T13:12:22;6.30;;;1.70;;
8450;SDS011;4262;50.980;13.892;2023-03-23T13:14:55;6.33;;;1.80;;
8450;SDS011;4262;50.980;13.892;2023-03-23T13:17:31;7.40;;;2.00;;
8450;SDS011;4262;50.980;13.892;2023-03-23T13:23:11;6.90;;;1.73;;
8450;SDS011;4262;50.980;13.892;2023-03-23T13:25:47;8.33;;;2.50;;
8450;SDS011;4262;50.980;13.892;2023-03-23T13:28:17;8.37;;;1.90;;
8450;SDS011;4262;50.980;13.892;2023-03-23T13:31:01;8.70;;;1.80;;
8450;SDS011;4262;50.980;13.892;2023-03-23T13:33:30;7.07;;;1.57;;
8450;SDS011;4262;50.980;13.892;2023-03-23T13:36:08;10.03;;;2.17;;
8450;SDS011;4262;50.980;13.892;2023-03-23T13:38:45;7.30;;;2.00;;
8450;SDS011;4262;50.980;13.892;2023-03-23T13:41:15;6.30;;;2.17;;
8450;SDS011;4262;50.980;13.892;2023-03-23T13:43:43;6.50;;;1.47;;
8450;SDS011;4262;50.980;13.892;2023-03-23T13:46:12;12.10;;;1.97;;
8450;SDS011;4262;50.980;13.892;2023-03-23T13:49:02;7.97;;;2.00;;
8450;SDS011;4262;50.980;13.892;2023-03-23T13:51:33;7.10;;;1.77;;
8450;SDS011;4262;50.980;13.892;2023-03-23T13:56:57;7.27;;;2.00;;
8450;SDS011;4262;50.980;13.892;2023-03-23T13:59:29;6.53;;;1.90;;
8450;SDS011;4262;50.980;13.892;2023-03-23T14:05:07;6.20;;;1.93;;
8450;SDS011;4262;50.980;13.892;2023-03-23T14:07:51;8.37;;;2.23;;
8450;SDS011;4262;50.980;13.892;2023-03-23T14:10:22;8.53;;;2.40;;
8450;SDS011;4262;50.980;13.892;2023-03-23T14:12:50;6.33;;;1.50;;
8450;SDS011;4262;50.980;13.892;2023-03-23T14:15:19;7.80;;;1.90;;
8450;SDS011;4262;50.980;13.892;2023-03-23T14:17:46;5.97;;;1.70;;
8450;SDS011;4262;50.980;13.892;2023-03-23T14:20:19;6.40;;;1.50;;
8450;SDS011;4262;50.980;13.892;2023-03-23T14:22:53;6.33;;;1.73;;
8450;SDS011;4262;50.980;13.892;2023-03-23T14:25:26;9.60;;;1.90;;
8450;SDS011;4262;50.980;13.892;2023-03-23T14:27:56;6.90;;;2.00;;
8450;SDS011;4262;50.980;13.892;2023-03-23T14:30:26;6.77;;;1.97;;
8450;SDS011;4262;50.980;13.892;2023-03-23T14:33:03;7.60;;;1.77;;
8450;SDS011;4262;50.980;13.892;2023-03-23T14:35:33;6.50;;;1.47;;
8450;SDS011;4262;50.980;13.892;2023-03-23T14:38:04;6.73;;;1.80;;
8450;SDS011;4262;50.980;13.892;2023-03-23T14:40:32;7.37;;;1.90;;
8450;SDS011;4262;50.980;13.892;2023-03-23T14:43:00;6.90;;;2.10;;
8450;SDS011;4262;50.980;13.892;2023-03-23T14:45:28;6.40;;;2.00;;
8450;SDS011;4262;50.980;13.892;2023-03-23T14:47:56;6.80;;;1.60;;
8450;SDS011;4262;50.980;13.892;2023-03-23T14:50:28;7.73;;;1.67;;
8450;SDS011;4262;50.980;13.892;2023-03-23T14:53:03;7.30;;;1.93;;
8450;SDS011;4262;50.980;13.892;2023-03-23T14:55:41;8.33;;;1.60;;
8450;SDS011;4262;50.980;13.892;2023-03-23T14:58:11;8.63;;;1.60;;
8450;SDS011;4262;50.980;13.892;2023-03-23T15:00:41;6.30;;;1.43;;
8450;SDS011;4262;50.980;13.892;2023-03-23T15:03:13;6.70;;;1.43;;
8450;SDS011;4262;50.980;13.892;2023-03-23T15:05:43;6.47;;;1.60;;
8450;SDS011;4262;50.980;13.892;2023-03-23T15:08:14;6.60;;;1.87;;
8450;SDS011;4262;50.980;13.892;2023-03-23T15:10:53;6.47;;;1.67;;
8450;SDS011;4262;50.980;13.892;2023-03-23T15:13:21;7.20;;;2.10;;
8450;SDS011;4262;50.980;13.892;2023-03-23T15:15:48;8.37;;;1.73;;
8450;SDS011;4262;50.980;13.892;2023-03-23T15:18:22;7.40;;;2.13;;
8450;SDS011;4262;50.980;13.892;2023-03-23T15:20:57;7.50;;;1.97;;
8450;SDS011;4262;50.980;13.892;2023-03-23T15:23:27;6.20;;;1.63;;
8450;SDS011;4262;50.980;13.892;2023-03-23T15:25:57;8.03;;;2.03;;
8450;SDS011;4262;50.980;13.892;2023-03-23T15:28:28;6.77;;;2.13;;
8450;SDS011;4262;50.980;13.892;2023-03-23T15:31:00;7.93;;;1.83;;
8450;SDS011;4262;50.980;13.892;2023-03-23T15:33:33;7.97;;;2.00;;
8450;SDS011;4262;50.980;13.892;2023-03-23T15:36:05;9.60;;;2.10;;
8450;SDS011;4262;50.980;13.892;2023-03-23T15:38:35;8.93;;;2.40;;
8450;SDS011;4262;50.980;13.892;2023-03-23T15:41:04;6.13;;;1.47;;
8450;SDS011;4262;50.980;13.892;2023-03-23T15:43:33;6.70;;;1.70;;
8450;SDS011;4262;50.980;13.892;2023-03-23T15:46:02;5.80;;;1.40;;
8450;SDS011;4262;50.980;13.892;2023-03-23T15:48:33;6.60;;;1.80;;
8450;SDS011;4262;50.980;13.892;2023-03-23T15:51:13;6.93;;;1.50;;
8450;SDS011;4262;50.980;13.892;2023-03-23T15:53:41;10.67;;;2.00;;
8450;SDS011;4262;50.980;13.892;2023-03-23T15:56:11;11.47;;;2.00;;
8450;SDS011;4262;50.980;13.892;2023-03-23T15:58:40;7.93;;;3.40;;
8450;SDS011;4262;50.980;13.892;2023-03-23T16:01:10;6.93;;;2.03;;
8450;SDS011;4262;50.980;13.892;2023-03-23T16:03:38;6.90;;;1.57;;
8450;SDS011;4262;50.980;13.892;2023-03-23T16:06:09;7.80;;;1.30;;
8450;SDS011;4262;50.980;13.892;2023-03-23T16:08:38;7.20;;;1.70;;
8450;SDS011;4262;50.980;13.892;2023-03-23T16:11:06;6.80;;;1.73;;
8450;SDS011;4262;50.980;13.892;2023-03-23T16:13:36;9.20;;;1.60;;
8450;SDS011;4262;50.980;13.892;2023-03-23T16:16:03;6.50;;;1.10;;
8450;SDS011;4262;50.980;13.892;2023-03-23T16:18:32;6.50;;;1.50;;
8450;SDS011;4262;50.980;13.892;2023-03-23T16:21:01;6.33;;;1.50;;
8450;SDS011;4262;50.980;13.892;2023-03-23T16:23:27;6.63;;;1.67;;
8450;SDS011;4262;50.980;13.892;2023-03-23T16:25:54;7.80;;;2.07;;
8450;SDS011;4262;50.980;13.892;2023-03-23T16:28:21;14.93;;;6.93;;
8450;SDS011;4262;50.980;13.892;2023-03-23T16:30:50;12.50;;;4.80;;
8450;SDS011;4262;50.980;13.892;2023-03-23T16:33:17;6.17;;;1.87;;
8450;SDS011;4262;50.980;13.892;2023-03-23T16:35:43;6.70;;;2.13;;
8450;SDS011;4262;50.980;13.892;2023-03-23T16:38:12;6.30;;;1.53;;
8450;SDS011;4262;50.980;13.892;2023-03-23T16:40:41;5.93;;;1.43;;
8450;SDS011;4262;50.980;13.892;2023-03-23T16:43:09;8.70;;;1.70;;
8450;SDS011;4262;50.980;13.892;2023-03-23T16:45:36;6.20;;;1.60;;
8450;SDS011;4262;50.980;13.892;2023-03-23T16:48:05;8.20;;;2.53;;
8450;SDS011;4262;50.980;13.892;2023-03-23T16:50:32;9.70;;;1.90;;
8450;SDS011;4262;50.980;13.892;2023-03-23T16:53:00;6.30;;;1.60;;
8450;SDS011;4262;50.980;13.892;2023-03-23T16:55:27;11.77;;;3.20;;
8450;SDS011;4262;50.980;13.892;2023-03-23T16:57:55;6.63;;;1.90;;
8450;SDS011;4262;50.980;13.892;2023-03-23T17:00:24;6.10;;;1.40;;
8450;SDS011;4262;50.980;13.892;2023-03-23T17:02:52;6.10;;;1.50;;
8450;SDS011;4262;50.980;13.892;2023-03-23T17:05:23;6.60;;;1.57;;
8450;SDS011;4262;50.980;13.892;2023-03-23T17:07:51;6.07;;;1.53;;
8450;SDS011;4262;50.980;13.892;2023-03-23T17:10:21;5.90;;;1.30;;
8450;SDS011;4262;50.980;13.892;2023-03-23T17:12:49;7.00;;;1.60;;
8450;SDS011;4262;50.980;13.892;2023-03-23T17:15:15;7.73;;;1.70;;
8450;SDS011;4262;50.980;13.892;2023-03-23T17:17:42;7.40;;;2.07;;
8450;SDS011;4262;50.980;13.892;2023-03-23T17:20:11;8.00;;;1.97;;
8450;SDS011;4262;50.980;13.892;2023-03-23T17:22:40;7.50;;;2.50;;
8450;SDS011;4262;50.980;13.892;2023-03-23T17:25:07;7.70;;;1.87;;
8450;SDS011;4262;50.980;13.892;2023-03-23T17:27:35;11.37;;;1.40;;
8450;SDS011;4262;50.980;13.892;2023-03-23T17:30:02;7.13;;;1.40;;
8450;SDS011;4262;50.980;13.892;2023-03-23T17:32:31;6.43;;;1.70;;
8450;SDS011;4262;50.980;13.892;2023-03-23T17:34:58;5.90;;;1.23;;
8450;SDS011;4262;50.980;13.892;2023-03-23T17:37:27;5.60;;;1.40;;
8450;SDS011;4262;50.980;13.892;2023-03-23T17:39:55;7.47;;;2.70;;
8450;SDS011;4262;50.980;13.892;2023-03-23T17:42:22;8.87;;;1.70;;
8450;SDS011;4262;50.980;13.892;2023-03-23T17:44:48;7.77;;;1.60;;
8450;SDS011;4262;50.980;13.892;2023-03-23T17:47:15;7.00;;;1.37;;
8450;SDS011;4262;50.980;13.892;2023-03-23T17:49:42;6.10;;;1.70;;
8450;SDS011;4262;50.980;13.892;2023-03-23T17:52:08;7.17;;;1.70;;
8450;SDS011;4262;50.980;13.892;2023-03-23T17:54:35;6.70;;;1.80;;
8450;SDS011;4262;50.980;13.892;2023-03-23T17:57:04;6.23;;;1.63;;
8450;SDS011;4262;50.980;13.892;2023-03-23T17:59:31;6.67;;;1.73;;
8450;SDS011;4262;50.980;13.892;2023-03-23T18:01:59;6.23;;;1.73;;
8450;SDS011;4262;50.980;13.892;2023-03-23T18:04:26;6.93;;;1.90;;
8450;SDS011;4262;50.980;13.892;2023-03-23T18:06:53;15.37;;;4.90;;
8450;SDS011;4262;50.980;13.892;2023-03-23T18:09:20;13.33;;;5.17;;
8450;SDS011;4262;50.980;13.892;2023-03-23T18:11:49;10.50;;;3.20;;
8450;SDS011;4262;50.980;13.892;2023-03-23T18:14:18;9.47;;;2.63;;
8450;SDS011;4262;50.980;13.892;2023-03-23T18:16:45;7.93;;;2.77;;
8450;SDS011;4262;50.980;13.892;2023-03-23T18:19:12;8.33;;;2.97;;
8450;SDS011;4262;50.980;13.892;2023-03-23T18:21:39;12.30;;;4.00;;
8450;SDS011;4262;50.980;13.892;2023-03-23T18:24:06;9.30;;;3.23;;
8450;SDS011;4262;50.980;13.892;2023-03-23T18:26:33;8.37;;;2.20;;
8450;SDS011;4262;50.980;13.892;2023-03-23T18:29:00;7.20;;;2.50;;
8450;SDS011;4262;50.980;13.892;2023-03-23T18:31:30;9.50;;;2.50;;
8450;SDS011;4262;50.980;13.892;2023-03-23T18:33:57;7.80;;;1.97;;
8450;SDS011;4262;50.980;13.892;2023-03-23T18:36:24;8.03;;;2.70;;
8450;SDS011;4262;50.980;13.892;2023-03-23T18:38:55;9.50;;;2.50;;
8450;SDS011;4262;50.980;13.892;2023-03-23T18:41:22;11.80;;;5.60;;
8450;SDS011;4262;50.980;13.892;2023-03-23T18:43:49;12.93;;;5.90;;
8450;SDS011;4262;50.980;13.892;2023-03-23T18:46:15;11.27;;;5.07;;
8450;SDS011;4262;50.980;13.892;2023-03-23T18:48:44;12.53;;;5.90;;
8450;SDS011;4262;50.980;13.892;2023-03-23T18:51:10;10.77;;;5.20;;
8450;SDS011;4262;50.980;13.892;2023-03-23T18:53:37;15.77;;;8.20;;
8450;SDS011;4262;50.980;13.892;2023-03-23T18:56:05;19.50;;;12.00;;
8450;SDS011;4262;50.980;13.892;2023-03-23T18:58:33;16.37;;;9.70;;
8450;SDS011;4262;50.980;13.892;2023-03-23T19:01:02;18.87;;;9.20;;
8450;SDS011;4262;50.980;13.892;2023-03-23T19:03:31;14.73;;;8.87;;
8450;SDS011;4262;50.980;13.892;2023-03-23T19:05:59;15.97;;;9.00;;
8450;SDS011;4262;50.980;13.892;2023-03-23T19:08:28;10.80;;;5.47;;
8450;SDS011;4262;50.980;13.892;2023-03-23T19:10:55;9.37;;;4.47;;
8450;SDS011;4262;50.980;13.892;2023-03-23T19:13:24;10.03;;;4.83;;
8450;SDS011;4262;50.980;13.892;2023-03-23T19:15:51;11.53;;;4.70;;
8450;SDS011;4262;50.980;13.892;2023-03-23T19:18:18;11.03;;;4.53;;
8450;SDS011;4262;50.980;13.892;2023-03-23T19:20:47;9.50;;;4.57;;
8450;SDS011;4262;50.980;13.892;2023-03-23T19:23:16;9.53;;;4.00;;
8450;SDS011;4262;50.980;13.892;2023-03-23T19:25:43;10.27;;;4.20;;
8450;SDS011;4262;50.980;13.892;2023-03-23T19:28:10;12.43;;;4.13;;
8450;SDS011;4262;50.980;13.892;2023-03-23T19:30:41;8.57;;;3.27;;
8450;SDS011;4262;50.980;13.892;2023-03-23T19:33:10;8.50;;;3.80;;
8450;SDS011;4262;50.980;13.892;2023-03-23T19:35:37;9.73;;;4.70;;
8450;SDS011;4262;50.980;13.892;2023-03-23T19:38:06;11.57;;;5.33;;
8450;SDS011;4262;50.980;13.892;2023-03-23T19:40:34;11.30;;;5.47;;
8450;SDS011;4262;50.980;13.892;2023-03-23T19:43:02;13.00;;;4.30;;
8450;SDS011;4262;50.980;13.892;2023-03-23T19:45:29;13.60;;;4.10;;
8450;SDS011;4262;50.980;13.892;2023-03-23T19:47:56;10.27;;;3.60;;
8450;SDS011;4262;50.980;13.892;2023-03-23T19:50:24;12.47;;;4.30;;
8450;SDS011;4262;50.980;13.892;2023-03-23T19:52:51;10.57;;;4.80;;
8450;SDS011;4262;50.980;13.892;2023-03-23T19:55:17;11.40;;;4.90;;
8450;SDS011;4262;50.980;13.892;2023-03-23T19:57:45;11.73;;;5.47;;
8450;SDS011;4262;50.980;13.892;2023-03-23T20:00:14;11.83;;;4.67;;
8450;SDS011;4262;50.980;13.892;2023-03-23T20:02:42;11.93;;;4.67;;
8450;SDS011;4262;50.980;13.892;2023-03-23T20:05:08;8.47;;;3.97;;
8450;SDS011;4262;50.980;13.892;2023-03-23T20:07:36;13.03;;;4.97;;